Brookings, SD

7:19 AM CDT on September 29, 2016 (GMT -0500)
Brookings Municipal

Weather History for KBKX - January, 2013

Change the Weather History Date:

Thursday, January 3, 2013

  Actual Average Record
Temperature  
Mean Temperature 10 °F -  
Max Temperature 19 °F 22 °F 39 °F (2012)
Min Temperature 1 °F 7 °F -9 °F (1999)
Degree Days  
Heating Degree Days 55    
Moisture  
Dew Point 9 °F    
Average Humidity 85    
Maximum Humidity 100    
Minimum Humidity 74    
Precipitation  
Precipitation 0.00 in - - ()
Sea Level Pressure  
Sea Level Pressure 30.23 in    
Wind  
Wind Speed 11 mph (WSW)    
Max Wind Speed 16 mph    
Max Gust Speed 21 mph    
Visibility 10 miles    
Events      
Averages and records for this station are not official NWS values.
T = Trace of Precipitation, MM = Missing Value Source: NWS Daily Summary

Daily Weather History Graph

Daily Weather History Graph

Search for Another Location

Airport or City:

Trip Planner

Search our weather history database for the weather conditions in past years. The results will help you decide how hot, cold, wet, or windy it might be!

Date:

Astronomy

Jan. 03, 2013 Rise Set
Actual Time 8:03 AM CST 5:01 PM CST
Civil Twilight 7:30 AM CST 5:34 PM CST
Nautical Twilight 6:53 AM CST 6:10 PM CST
Astronomical Twilight 6:18 AM CST 6:45 PM CST
Moon 11:54 PM CST (1/3) 11:00 AM CST (1/3)
Length of Visible Light 10h 03m
Length of Day
8h 57m
Waning Gibbous, 65% of the Moon is Illuminated
Jan 3
Waning Gibbous
Jan 4
Last Quarter
Jan 11
New
Jan 18
First Quarter
Jan 26
Full

Hourly Weather History & Observations

Time (CST) Temp. Windchill Dew Point Humidity Pressure Visibility Wind Dir Wind Speed Gust Speed Precip Events Conditions
12:15 AM 12.2 °F -3.1 °F 6.8 °F 79% 30.20 in 10.0 mi NW 13.8 mph - N/A   Clear
12:35 AM 10.4 °F -6.6 °F 6.8 °F 85% 30.21 in 10.0 mi NW 16.1 mph - N/A   Clear
12:55 AM 10.4 °F -4.8 °F 5.0 °F 79% 30.21 in 10.0 mi WNW 12.7 mph - N/A   Clear
1:15 AM 8.6 °F -8.3 °F 5.0 °F 85% 30.21 in 10.0 mi WNW 15.0 mph - N/A   Clear
1:35 AM 8.6 °F -6.3 °F 3.2 °F 79% 30.21 in 10.0 mi WNW 11.5 mph - N/A   Clear
1:55 AM 6.8 °F -9.3 °F 3.2 °F 85% 30.22 in 10.0 mi WNW 12.7 mph - N/A   Clear
2:15 AM 6.8 °F -9.3 °F 3.2 °F 85% 30.23 in 10.0 mi WNW 12.7 mph - N/A   Clear
2:35 AM 6.8 °F -8.6 °F 1.4 °F 79% 30.24 in 10.0 mi WNW 11.5 mph - N/A   Partly Cloudy
2:55 AM 6.8 °F -9.3 °F 1.4 °F 79% 30.24 in 10.0 mi NW 12.7 mph - N/A   Scattered Clouds
3:15 AM 6.8 °F -8.6 °F 3.2 °F 85% 30.24 in 10.0 mi WNW 11.5 mph - N/A   Clear
3:35 AM 5.0 °F -9.1 °F -0.4 °F 78% 30.24 in 10.0 mi West 9.2 mph - N/A   Clear
3:55 AM 5.0 °F -10.0 °F 1.4 °F 85% 30.24 in 10.0 mi West 10.4 mph - N/A   Clear
4:15 AM 3.2 °F -11.3 °F 1.4 °F 92% 30.24 in 10.0 mi WNW 9.2 mph - N/A   Clear
4:35 AM 3.2 °F -12.2 °F 1.4 °F 92% 30.25 in 10.0 mi WNW 10.4 mph - N/A   Clear
4:55 AM 3.2 °F -12.2 °F 1.4 °F 92% 30.26 in 10.0 mi WNW 10.4 mph - N/A   Clear
5:15 AM 3.2 °F -11.3 °F -0.4 °F 85% 30.26 in 10.0 mi WNW 9.2 mph - N/A   Clear
5:35 AM 3.2 °F -11.3 °F 3.2 °F 100% 30.26 in 10.0 mi WNW 9.2 mph - N/A   Clear
5:55 AM 3.2 °F -10.3 °F -0.4 °F 85% 30.27 in 10.0 mi WNW 8.1 mph - N/A   Clear
6:15 AM 3.2 °F -7.8 °F -0.4 °F 85% 30.26 in 10.0 mi NNW 5.8 mph - N/A   Clear
6:35 AM 3.2 °F -6.2 °F 1.4 °F 92% 30.28 in 10.0 mi WNW 4.6 mph - N/A   Clear
6:55 AM 1.4 °F -11.3 °F -0.4 °F 92% 30.28 in 10.0 mi WNW 6.9 mph - N/A   Scattered Clouds
7:15 AM 3.2 °F -6.2 °F 3.2 °F 100% 30.28 in 10.0 mi NW 4.6 mph - N/A   Overcast
7:35 AM 6.8 °F -3.5 °F 3.2 °F 85% 30.28 in 10.0 mi NNW 5.8 mph - N/A   Overcast
7:55 AM 6.8 °F -4.8 °F 3.2 °F 85% 30.28 in 10.0 mi NW 6.9 mph - N/A   Overcast
8:15 AM 8.6 °F -6.3 °F 8.6 °F 100% 30.28 in 10.0 mi NW 11.5 mph - N/A   Overcast
8:35 AM 10.4 °F -4.1 °F 10.4 °F 100% 30.28 in 10.0 mi NW 11.5 mph - N/A   Overcast
8:55 AM 12.2 °F -0.2 °F 8.6 °F 85% 30.28 in 9.0 mi WNW 9.2 mph - N/A   Overcast
9:35 AM 12.2 °F 1.7 °F 10.4 °F 92% 30.29 in 5.0 mi West 6.9 mph - N/A   Overcast
9:55 AM 14.0 °F 1.2 °F 10.4 °F 86% 30.30 in 8.0 mi WNW 10.4 mph - N/A   Overcast
10:15 AM 15.8 °F 0.9 °F 10.4 °F 79% 30.30 in 10.0 mi WNW 15.0 mph 20.7 mph N/A   Overcast
10:35 AM 15.8 °F 3.4 °F 12.2 °F 86% 30.31 in 10.0 mi WNW 10.4 mph - N/A   Overcast
10:55 AM 15.8 °F 2.7 °F 12.2 °F 86% 30.31 in 10.0 mi WNW 11.5 mph - N/A   Overcast
11:15 AM 15.8 °F 6.1 °F 12.2 °F 86% 30.29 in 10.0 mi WNW 6.9 mph - N/A   Overcast
11:35 AM 17.6 °F 9.3 °F 12.2 °F 79% 30.28 in 10.0 mi West 5.8 mph - N/A   Overcast
11:55 AM 17.6 °F 8.2 °F 14.0 °F 86% 30.27 in 10.0 mi West 6.9 mph - N/A   Overcast
12:15 PM 17.6 °F 8.2 °F 14.0 °F 86% 30.26 in 10.0 mi WSW 6.9 mph - N/A   Overcast
12:35 PM 19.4 °F 8.6 °F 14.0 °F 80% 30.25 in 10.0 mi WSW 9.2 mph - N/A   Overcast
12:55 PM 19.4 °F 8.6 °F 14.0 °F 80% 30.24 in 10.0 mi SW 9.2 mph - N/A   Mostly Cloudy
1:15 PM 17.6 °F 6.4 °F 12.2 °F 79% 30.23 in 10.0 mi SW 9.2 mph - N/A   Partly Cloudy
1:35 PM 17.6 °F 5.7 °F 12.2 °F 79% 30.24 in 10.0 mi SW 10.4 mph - N/A   Clear
1:55 PM 17.6 °F 5.0 °F 12.2 °F 79% 30.23 in 10.0 mi SSW 11.5 mph - N/A   Clear
2:15 PM 17.6 °F 5.0 °F 12.2 °F 79% 30.23 in 10.0 mi SSW 11.5 mph - N/A   Clear
2:35 PM 17.6 °F 6.4 °F 12.2 °F 79% 30.24 in 10.0 mi SSW 9.2 mph - N/A   Partly Cloudy
2:55 PM 19.4 °F 7.9 °F 14.0 °F 80% 30.24 in 10.0 mi SW 10.4 mph - N/A   Partly Cloudy
3:15 PM 19.4 °F 7.9 °F 15.8 °F 86% 30.24 in 10.0 mi WSW 10.4 mph - N/A   Clear
3:35 PM 19.4 °F 7.9 °F 15.8 °F 86% 30.24 in 10.0 mi WSW 10.4 mph - N/A   Mostly Cloudy
3:55 PM 19.4 °F 7.2 °F 17.6 °F 93% 30.23 in 10.0 mi WSW 11.5 mph - N/A   Overcast
4:15 PM 19.4 °F 8.6 °F 15.8 °F 86% 30.23 in 10.0 mi SW 9.2 mph - N/A   Scattered Clouds
4:35 PM 19.4 °F 8.6 °F 15.8 °F 86% 30.22 in 10.0 mi SSW 9.2 mph - N/A   Clear
4:55 PM 17.6 °F 8.2 °F 14.0 °F 86% 30.22 in 10.0 mi SSW 6.9 mph - N/A   Clear
5:15 PM 17.6 °F 8.2 °F 14.0 °F 86% 30.22 in 10.0 mi SSW 6.9 mph - N/A   Clear
5:35 PM 17.6 °F 8.2 °F 15.8 °F 93% 30.22 in 10.0 mi SSW 6.9 mph - N/A   Clear
5:55 PM 15.8 °F 5.1 °F 12.2 °F 86% 30.21 in 10.0 mi SSW 8.1 mph - N/A   Clear
6:15 PM 15.8 °F 3.4 °F 12.2 °F 86% 30.21 in 10.0 mi South 10.4 mph - N/A   Clear
6:35 PM 14.0 °F 0.5 °F 12.2 °F 93% 30.20 in 10.0 mi South 11.5 mph - N/A   Clear
7:15 PM 14.0 °F 2.0 °F 12.2 °F 93% 30.20 in 10.0 mi SSW 9.2 mph - N/A   Clear
7:35 PM 15.8 °F 4.2 °F 12.2 °F 86% 30.19 in 10.0 mi SSW 9.2 mph - N/A   Clear
7:55 PM 15.8 °F 3.4 °F 12.2 °F 86% 30.18 in 10.0 mi SSW 10.4 mph - N/A   Clear
8:15 PM 15.8 °F 2.1 °F 12.2 °F 86% 30.17 in 10.0 mi SSW 12.7 mph - N/A   Clear
8:35 PM 17.6 °F 5.0 °F 12.2 °F 79% 30.16 in 10.0 mi South 11.5 mph - N/A   Clear
8:55 PM 17.6 °F 5.7 °F 14.0 °F 86% 30.16 in 10.0 mi SSW 10.4 mph - N/A   Clear
9:15 PM 15.8 °F 4.2 °F 12.2 °F 86% 30.16 in 10.0 mi SSW 9.2 mph - N/A   Clear
9:35 PM 17.6 °F 6.4 °F 12.2 °F 79% 30.15 in 10.0 mi SSW 9.2 mph - N/A   Clear
9:55 PM 17.6 °F 5.7 °F 12.2 °F 79% 30.14 in 10.0 mi SSW 10.4 mph - N/A   Clear
10:15 PM 17.6 °F 6.4 °F 12.2 °F 79% 30.13 in 10.0 mi SSW 9.2 mph - N/A   Clear
10:35 PM 17.6 °F 5.7 °F 12.2 °F 79% 30.13 in 10.0 mi SSW 10.4 mph - N/A   Clear
10:55 PM 19.4 °F 7.9 °F 12.2 °F 74% 30.13 in 10.0 mi SSW 10.4 mph - N/A   Clear
11:15 PM 17.6 °F 5.7 °F 12.2 °F 79% 30.13 in 10.0 mi SSW 10.4 mph - N/A   Clear
11:35 PM 19.4 °F 7.2 °F 14.0 °F 80% 30.13 in 10.0 mi SSW 11.5 mph - N/A   Clear
11:55 PM 19.4 °F 6.0 °F 14.0 °F 80% 30.12 in 10.0 mi SSW 13.8 mph - N/A   Clear